Time;durP1;ratioP1;P1;durP2;ratioP2;P2;SDS_P1;SDS_P2;PMS_P1;PMS_P2;Temp;Humidity;BMP_temperature;BMP_pressure;BME280_temperature;BME280_humidity;BME280_pressure;Samples;Min_cycle;Max_cycle;Signal;HPM_P1;HPM_P2
2022/04/10 00:00:22;;;;;;;;;;;;;;;;;;5091826;27;19923;-70
2022/04/10 00:05:10;;;;;;;;;;;;;;;;;;5091066;27;19923;-70
2022/04/10 00:07:36;;;;;;;;;;;;;;;;;;5091648;28;19912;-70
2022/04/10 00:10:02;;;;;;;;;;;;;;;;;;5092153;28;19962;-70
2022/04/10 00:12:28;;;;;;;;;;;;;;;;;;5090920;28;20292;-70
2022/04/10 00:15:17;;;;;;;;;;;;;;;;;;5092205;27;19916;-69
2022/04/10 00:17:43;;;;;;;;;;;;;;;;;;5091399;28;19912;-69
2022/04/10 00:20:09;;;;;;;;;;;;;;;;;;5090952;28;20353;-69
2022/04/10 00:22:35;;;;;;;;;;;;;;;;;;5091328;28;19916;-69
2022/04/10 00:25:01;;;;;;;;;;;;;;;;;;5090948;28;19913;-70
2022/04/10 00:27:27;;;;;;;;;;;;;;;;;;5091463;28;19919;-70
2022/04/10 00:32:22;;;;;;;;;;;;;;;;;;5091040;27;20577;-70
2022/04/10 00:35:21;;;;;;;;;;;;;;;;;;5091516;28;19917;-71
2022/04/10 00:37:47;;;;;;;;;;;;;;;;;;5091419;28;19955;-70
2022/04/10 00:40:13;;;;;;;;;;;;;;;;;;5091036;28;20287;-70
2022/04/10 00:43:28;;;;;;;;;;;;;;;;;;5091781;27;19916;-69
2022/04/10 00:45:56;;;;;;;;;;;;;;;;;;5091357;28;19912;-69
2022/04/10 00:48:22;;;;;;;;;;;;;;;;;;5090908;28;19908;-70
2022/04/10 00:55:24;;;;;;;;;;;;;;;;;;5091550;27;19923;-69
2022/04/10 00:57:50;;;;;;;;;;;;;;;;;;5091333;28;20276;-69
2022/04/10 01:00:17;;;;;;;;;;;;;;;;;;5091432;28;19908;-69
2022/04/10 01:02:43;;;;;;;;;;;;;;;;;;5091249;28;19908;-69
2022/04/10 01:05:09;;;;;;;;;;;;;;;;;;5089864;28;19916;-70
2022/04/10 01:09:40;;;;;;;;;;;;;;;;;;5092127;27;20543;-69
2022/04/10 01:13:31;;;;;;;;;;;;;;;;;;5111997;27;19912;-70
2022/04/10 01:15:57;;;;;;;;;;;;;;;;;;5111275;28;19943;-69
2022/04/10 01:18:23;;;;;;;;;;;;;;;;;;5112161;28;19947;-69
2022/04/10 01:21:25;;;;;;;;;;;;;;;;;;5091750;27;19922;-70
2022/04/10 01:23:51;;;;;;;;;;;;;;;;;;5091438;28;19912;-70
2022/04/10 01:26:33;;;;;;;;;;;;;;;;;;5091387;28;19916;-70
2022/04/10 01:28:59;;;;;;;;;;;;;;;;;;5089687;28;19916;-69
2022/04/10 01:31:25;;;;;;;;;;;;;;;;;;5091224;28;19916;-70
2022/04/10 01:37:47;;;;;;;;;;;;;;;;;;5091659;27;19912;-70
2022/04/10 01:48:09;;;;;;;;;;;;;;;;;;5091648;27;19938;-70
2022/04/10 01:52:39;;;;;;;;;;;;;;;;;;5111764;27;19922;-70
2022/04/10 01:57:38;;;;;;;;;;;;;;;;;;5091273;27;19916;-69
2022/04/10 02:00:04;;;;;;;;;;;;;;;;;;5091861;28;19955;-69
2022/04/10 02:02:30;;;;;;;;;;;;;;;;;;5090006;28;20384;-69
2022/04/10 02:04:56;;;;;;;;;;;;;;;;;;5091098;28;19908;-69
2022/04/10 02:09:42;;;;;;;;;;;;;;;;;;5095160;27;2236466;-70
2022/04/10 02:12:08;;;;;;;;;;;;;;;;;;5173337;27;19918;-69
2022/04/10 02:14:34;;;;;;;;;;;;;;;;;;5173628;27;20009;-69
2022/04/10 02:17:00;;;;;;;;;;;;;;;;;;5173666;27;19914;-69
2022/04/10 02:19:26;;;;;;;;;;;;;;;;;;5154522;27;20056;-69
2022/04/10 02:21:54;;;;;;;;;;;;;;;;;;5173542;27;19921;-69
2022/04/10 02:24:20;;;;;;;;;;;;;;;;;;5174169;27;20274;-69
2022/04/10 02:26:46;;;;;;;;;;;;;;;;;;5173018;27;19914;-69
2022/04/10 02:29:36;;;;;;;;;;;;;;;;;;5091625;27;19913;-69
2022/04/10 02:32:02;;;;;;;;;;;;;;;;;;5089906;28;20003;-69
2022/04/10 02:36:36;;;;;;;;;;;;;;;;;;5091601;27;20392;-69
2022/04/10 02:41:35;;;;;;;;;;;;;;;;;;5091470;27;20291;-69
2022/04/10 02:44:36;;;;;;;;;;;;;;;;;;5091481;27;19923;-69
2022/04/10 02:47:02;;;;;;;;;;;;;;;;;;5090916;28;20003;-69
2022/04/10 02:52:27;;;;;;;;;;;;;;;;;;5112247;27;19916;-69
2022/04/10 02:54:53;;;;;;;;;;;;;;;;;;5111296;28;19912;-70
2022/04/10 02:58:51;;;;;;;;;;;;;;;;;;5091477;27;19916;-69
2022/04/10 03:02:52;;;;;;;;;;;;;;;;;;5091730;27;19916;-69
2022/04/10 03:06:05;;;;;;;;;;;;;;;;;;5092083;27;19920;-69
2022/04/10 03:08:31;;;;;;;;;;;;;;;;;;5090995;28;19919;-71
2022/04/10 03:10:57;;;;;;;;;;;;;;;;;;5091292;28;19908;-69
2022/04/10 03:13:23;;;;;;;;;;;;;;;;;;5091767;28;19947;-69
2022/04/10 03:17:25;;;;;;;;;;;;;;;;;;5091415;27;19916;-69
2022/04/10 03:22:13;;;;;;;;;;;;;;;;;;5091401;27;19917;-69
2022/04/10 03:27:09;;;;;;;;;;;;;;;;;;5092475;27;19934;-69
2022/04/10 03:29:35;;;;;;;;;;;;;;;;;;5091029;28;20431;-69
2022/04/10 03:35:33;;;;;;;;;;;;;;;;;;5091153;27;19912;-70
2022/04/10 03:37:59;;;;;;;;;;;;;;;;;;5091269;28;20007;-70
2022/04/10 03:40:25;;;;;;;;;;;;;;;;;;5091377;28;19943;-70
2022/04/10 03:44:53;;;;;;;;;;;;;;;;;;5091539;28;20300;-70
2022/04/10 03:47:19;;;;;;;;;;;;;;;;;;5091305;28;19965;-70
2022/04/10 03:49:45;;;;;;;;;;;;;;;;;;5091004;28;19913;-70
2022/04/10 03:52:11;;;;;;;;;;;;;;;;;;5091662;28;19908;-71
2022/04/10 03:58:42;;;;;;;;;;;;;;;;;;5091842;27;19938;-70
2022/04/10 04:01:09;;;;;;;;;;;;;;;;;;5090068;28;19912;-70
2022/04/10 04:05:49;;;;;;;;;;;;;;;;;;5091483;27;19923;-70
2022/04/10 04:11:01;;;;;;;;;;;;;;;;;;5091432;27;19924;-70
2022/04/10 04:15:50;;;;;;;;;;;;;;;;;;5091524;27;19922;-70
2022/04/10 04:18:16;;;;;;;;;;;;;;;;;;5089702;28;19952;-70
2022/04/10 04:20:42;;;;;;;;;;;;;;;;;;5090049;28;19931;-71
2022/04/10 04:23:08;;;;;;;;;;;;;;;;;;5091560;28;19995;-71
2022/04/10 04:25:34;;;;;;;;;;;;;;;;;;5090875;28;19953;-70
2022/04/10 04:28:00;;;;;;;;;;;;;;;;;;5089874;28;19912;-70
2022/04/10 04:30:26;;;;;;;;;;;;;;;;;;5089873;28;19916;-70
2022/04/10 04:34:13;;;;;;;;;;;;;;;;;;5092055;28;19916;-70
2022/04/10 04:43:55;;;;;;;;;;;;;;;;;;5091790;27;19922;-71
2022/04/10 04:49:37;;;;;;;;;;;;;;;;;;5091479;27;19916;-70
2022/04/10 04:52:03;;;;;;;;;;;;;;;;;;5091160;28;20364;-70
2022/04/10 04:55:20;;;;;;;;;;;;;;;;;;5092059;27;19917;-70
2022/04/10 04:58:53;;;;;;;;;;;;;;;;;;5091862;28;20308;-70
2022/04/10 05:02:41;;;;;;;;;;;;;;;;;;5091533;27;19916;-70
2022/04/10 05:05:07;;;;;;;;;;;;;;;;;;5091353;28;19913;-70
2022/04/10 05:07:33;;;;;;;;;;;;;;;;;;5090891;28;19947;-70
2022/04/10 05:09:59;;;;;;;;;;;;;;;;;;5091255;28;19908;-71
2022/04/10 05:12:42;;;;;;;;;;;;;;;;;;5092312;28;19916;-71
2022/04/10 05:23:36;;;;;;;;;;;;;;;;;;5091582;27;19923;-70
2022/04/10 05:26:02;;;;;;;;;;;;;;;;;;5090133;28;19913;-71
2022/04/10 05:28:29;;;;;;;;;;;;;;;;;;5090885;28;19937;-69
2022/04/10 05:32:13;;;;;;;;;;;;;;;;;;5091639;27;19912;-70
2022/04/10 05:34:39;;;;;;;;;;;;;;;;;;5091116;28;19912;-70
2022/04/10 05:39:24;;;;;;;;;;;;;;;;;;5091994;27;19916;-70
2022/04/10 05:41:50;;;;;;;;;;;;;;;;;;5091102;28;19952;-70
2022/04/10 05:44:16;;;;;;;;;;;;;;;;;;5091334;28;19915;-70
2022/04/10 05:48:09;;;;;;;;;;;;;;;;;;5091389;27;19939;-70
2022/04/10 05:52:23;;;;;;;;;;;;;;;;;;5092121;27;19916;-70
2022/04/10 05:54:49;;;;;;;;;;;;;;;;;;5090187;28;19951;-70
2022/04/10 05:57:15;;;;;;;;;;;;;;;;;;5090990;28;20373;-70
2022/04/10 06:01:52;;;;;;;;;;;;;;;;;;5092024;27;19917;-70
2022/04/10 06:06:12;;;;;;;;;;;;;;;;;;5091544;27;20406;-69
2022/04/10 06:08:38;;;;;;;;;;;;;;;;;;5091550;28;19958;-69
2022/04/10 06:11:04;;;;;;;;;;;;;;;;;;5090913;28;20319;-71
2022/04/10 06:13:30;;;;;;;;;;;;;;;;;;5091831;28;19930;-71
2022/04/10 06:15:56;;;;;;;;;;;;;;;;;;5090014;28;19915;-69
2022/04/10 06:18:22;;;;;;;;;;;;;;;;;;5091089;28;19920;-70
2022/04/10 06:20:48;;;;;;;;;;;;;;;;;;5091369;28;19938;-70
2022/04/10 06:23:14;;;;;;;;;;;;;;;;;;5091254;28;19916;-70
2022/04/10 06:25:41;;;;;;;;;;;;;;;;;;5090623;28;20387;-70
2022/04/10 06:28:07;;;;;;;;;;;;;;;;;;5091078;28;19909;-70
2022/04/10 06:30:32;;;;;;;;;;;;;;;;;;5089727;28;19909;-70
2022/04/10 06:32:58;;;;;;;;;;;;;;;;;;5090561;28;20300;-71
2022/04/10 06:35:24;;;;;;;;;;;;;;;;;;5089622;28;19974;-71
2022/04/10 06:37:52;;;;;;;;;;;;;;;;;;5090545;28;20406;-71
2022/04/10 06:40:18;;;;;;;;;;;;;;;;;;5091353;28;19908;-70
2022/04/10 06:42:44;;;;;;;;;;;;;;;;;;5090793;28;19916;-72
2022/04/10 06:45:10;;;;;;;;;;;;;;;;;;5090198;28;19923;-70
2022/04/10 06:47:36;;;;;;;;;;;;;;;;;;5090757;28;19909;-70
2022/04/10 06:50:02;;;;;;;;;;;;;;;;;;5090654;28;20372;-70
2022/04/10 06:52:28;;;;;;;;;;;;;;;;;;5090254;28;19916;-70
2022/04/10 06:54:54;;;;;;;;;;;;;;;;;;5090550;28;19908;-70
2022/04/10 06:57:20;;;;;;;;;;;;;;;;;;5090470;28;19931;-70
2022/04/10 06:59:46;;;;;;;;;;;;;;;;;;5089992;28;19944;-70
2022/04/10 07:02:12;;;;;;;;;;;;;;;;;;5090591;28;19909;-70
2022/04/10 07:04:39;;;;;;;;;;;;;;;;;;5088862;28;19920;-70
2022/04/10 07:07:05;;;;;;;;;;;;;;;;;;5089930;28;19958;-70
2022/04/10 07:09:31;;;;;;;;;;;;;;;;;;5090254;28;19912;-70
2022/04/10 07:11:57;;;;;;;;;;;;;;;;;;5090278;28;19909;-70
2022/04/10 07:14:23;;;;;;;;;;;;;;;;;;5089963;28;20330;-70
2022/04/10 07:16:49;;;;;;;;;;;;;;;;;;5080535;28;19909;-70
2022/04/10 07:19:15;;;;;;;;;;;;;;;;;;5076818;28;19913;-70
2022/04/10 07:24:26;;;;;;;;;;;;;;;;;;5076367;28;19919;-70
2022/04/10 07:26:52;;;;;;;;;;;;;;;;;;5076400;28;19966;-70
2022/04/10 07:29:18;;;;;;;;;;;;;;;;;;5076113;28;20303;-70
2022/04/10 07:31:44;;;;;;;;;;;;;;;;;;5076829;28;19909;-71
2022/04/10 07:34:10;;;;;;;;;;;;;;;;;;5076781;28;19961;-70
2022/04/10 07:36:36;;;;;;;;;;;;;;;;;;5076126;28;20361;-70
2022/04/10 07:39:02;;;;;;;;;;;;;;;;;;5076155;28;20352;-71
2022/04/10 07:41:29;;;;;;;;;;;;;;;;;;5075734;28;20385;-71
2022/04/10 07:43:55;;;;;;;;;;;;;;;;;;5075952;28;19908;-70
2022/04/10 07:49:05;;;;;;;;;;;;;;;;;;5075739;28;19962;-71
2022/04/10 07:51:32;;;;;;;;;;;;;;;;;;5075846;28;20092;-71
2022/04/10 07:53:58;;;;;;;;;;;;;;;;;;5074619;28;19915;-71
2022/04/10 07:56:24;;;;;;;;;;;;;;;;;;5075588;28;19909;-71
2022/04/10 07:58:50;;;;;;;;;;;;;;;;;;5075795;28;19914;-71
2022/04/10 08:01:16;;;;;;;;;;;;;;;;;;5075106;28;20319;-71
2022/04/10 08:03:42;;;;;;;;;;;;;;;;;;5075340;28;19912;-71
2022/04/10 08:06:08;;;;;;;;;;;;;;;;;;5095629;28;19920;-71
2022/04/10 08:08:34;;;;;;;;;;;;;;;;;;5077666;28;19908;-71
2022/04/10 08:11:00;;;;;;;;;;;;;;;;;;5095471;28;20027;-71
2022/04/10 08:13:26;;;;;;;;;;;;;;;;;;5095767;28;19912;-71
2022/04/10 08:15:52;;;;;;;;;;;;;;;;;;5095738;28;19912;-71
2022/04/10 08:18:18;;;;;;;;;;;;;;;;;;5095289;28;20360;-71
2022/04/10 08:20:44;;;;;;;;;;;;;;;;;;5095682;28;19908;-71
2022/04/10 08:23:10;;;;;;;;;;;;;;;;;;5095908;28;20280;-72
2022/04/10 08:25:36;;;;;;;;;;;;;;;;;;5095657;28;20013;-71
2022/04/10 08:28:02;;;;;;;;;;;;;;;;;;5094544;28;19995;-71
2022/04/10 08:30:28;;;;;;;;;;;;;;;;;;5095130;28;19912;-71
2022/04/10 08:32:54;;;;;;;;;;;;;;;;;;5077191;28;19908;-71
2022/04/10 08:35:20;;;;;;;;;;;;;;;;;;5077201;28;19909;-71
2022/04/10 08:37:46;;;;;;;;;;;;;;;;;;5094957;28;19912;-71
2022/04/10 08:40:12;;;;;;;;;;;;;;;;;;5095792;28;20429;-71
2022/04/10 08:42:38;;;;;;;;;;;;;;;;;;5095131;28;19908;-71
2022/04/10 08:45:04;;;;;;;;;;;;;;;;;;5094679;28;19923;-70
2022/04/10 08:47:30;;;;;;;;;;;;;;;;;;5095361;28;19912;-70
2022/04/10 08:49:57;;;;;;;;;;;;;;;;;;5095499;28;19938;-70
2022/04/10 08:52:23;;;;;;;;;;;;;;;;;;5094956;28;19908;-70
2022/04/10 08:54:49;;;;;;;;;;;;;;;;;;5094884;28;19908;-70
2022/04/10 08:57:15;;;;;;;;;;;;;;;;;;5094963;28;19908;-71
2022/04/10 08:59:41;;;;;;;;;;;;;;;;;;5094719;28;19908;-70
2022/04/10 09:02:07;;;;;;;;;;;;;;;;;;5094675;28;19995;-70
2022/04/10 09:04:33;;;;;;;;;;;;;;;;;;5072846;28;19995;-71
2022/04/10 09:06:59;;;;;;;;;;;;;;;;;;5074032;28;19919;-70
2022/04/10 09:09:25;;;;;;;;;;;;;;;;;;5074374;28;19909;-70
2022/04/10 09:11:51;;;;;;;;;;;;;;;;;;5074370;28;20265;-70
2022/04/10 09:14:17;;;;;;;;;;;;;;;;;;5073915;28;19909;-71
2022/04/10 09:16:43;;;;;;;;;;;;;;;;;;5074133;28;19987;-71
2022/04/10 09:19:09;;;;;;;;;;;;;;;;;;5074312;28;19916;-70
2022/04/10 09:21:35;;;;;;;;;;;;;;;;;;5073834;28;19908;-70
2022/04/10 09:24:01;;;;;;;;;;;;;;;;;;5074059;28;19915;-70
2022/04/10 09:26:27;;;;;;;;;;;;;;;;;;5072851;28;20318;-71
2022/04/10 09:28:53;;;;;;;;;;;;;;;;;;5074131;28;20324;-70
2022/04/10 09:31:19;;;;;;;;;;;;;;;;;;5074660;28;19962;-70
2022/04/10 09:33:45;;;;;;;;;;;;;;;;;;5073647;28;19908;-70
2022/04/10 09:36:11;;;;;;;;;;;;;;;;;;5072790;28;19908;-70
2022/04/10 09:38:37;;;;;;;;;;;;;;;;;;5074129;28;19909;-70
2022/04/10 09:41:03;;;;;;;;;;;;;;;;;;5074041;28;19908;-71
2022/04/10 09:43:29;;;;;;;;;;;;;;;;;;5073903;28;19908;-70
2022/04/10 09:45:55;;;;;;;;;;;;;;;;;;5073832;28;20023;-71
2022/04/10 09:48:21;;;;;;;;;;;;;;;;;;5073399;28;20384;-71
2022/04/10 09:50:47;;;;;;;;;;;;;;;;;;5073846;28;19998;-71
2022/04/10 09:53:13;;;;;;;;;;;;;;;;;;5073877;28;20403;-71
2022/04/10 09:55:39;;;;;;;;;;;;;;;;;;5073324;28;20356;-71
2022/04/10 09:58:05;;;;;;;;;;;;;;;;;;5073896;28;20275;-71
2022/04/10 10:00:31;;;;;;;;;;;;;;;;;;5073851;28;19916;-71
2022/04/10 10:02:57;;;;;;;;;;;;;;;;;;5073436;28;19961;-71
2022/04/10 10:05:23;;;;;;;;;;;;;;;;;;5087514;28;19920;-71
2022/04/10 10:07:49;;;;;;;;;;;;;;;;;;5094428;28;19909;-71
2022/04/10 10:10:17;;;;;;;;;;;;;;;;;;5093491;28;20280;-71
2022/04/10 10:12:43;;;;;;;;;;;;;;;;;;5093886;28;19908;-71
2022/04/10 10:15:09;;;;;;;;;;;;;;;;;;5093674;28;19909;-71
2022/04/10 10:17:35;;;;;;;;;;;;;;;;;;5075172;28;19915;-70
2022/04/10 10:20:00;;;;;;;;;;;;;;;;;;5093688;28;19908;-71
2022/04/10 10:22:27;;;;;;;;;;;;;;;;;;5093821;28;20006;-71
2022/04/10 10:24:53;;;;;;;;;;;;;;;;;;5093261;28;19946;-74
2022/04/10 10:27:19;;;;;;;;;;;;;;;;;;5075506;28;19908;-71
2022/04/10 10:29:45;;;;;;;;;;;;;;;;;;5093553;28;19909;-70
2022/04/10 10:32:11;;;;;;;;;;;;;;;;;;5093491;28;19908;-72
2022/04/10 10:34:37;;;;;;;;;;;;;;;;;;5093886;28;19908;-70
2022/04/10 10:37:03;;;;;;;;;;;;;;;;;;5093226;28;19908;-70
2022/04/10 10:39:30;;;;;;;;;;;;;;;;;;5093891;28;20012;-70
2022/04/10 10:41:56;;;;;;;;;;;;;;;;;;5093867;28;19908;-70
2022/04/10 10:44:22;;;;;;;;;;;;;;;;;;5093213;28;19916;-72
2022/04/10 10:46:48;;;;;;;;;;;;;;;;;;5075344;28;19909;-70
2022/04/10 10:49:14;;;;;;;;;;;;;;;;;;5093519;28;19916;-70
2022/04/10 10:51:41;;;;;;;;;;;;;;;;;;5076484;28;19908;-70
2022/04/10 10:54:10;;;;;;;;;;;;;;;;;;5097553;28;20325;-70
2022/04/10 10:56:36;;;;;;;;;;;;;;;;;;5097442;28;20308;-71
2022/04/10 10:59:02;;;;;;;;;;;;;;;;;;5097044;28;20022;-71
2022/04/10 11:01:28;;;;;;;;;;;;;;;;;;5079322;28;19908;-71
2022/04/10 11:03:54;;;;;;;;;;;;;;;;;;5096946;28;20410;-71
2022/04/10 11:06:20;;;;;;;;;;;;;;;;;;5096962;28;19923;-72
2022/04/10 11:08:46;;;;;;;;;;;;;;;;;;5078763;28;19923;-71
2022/04/10 11:11:12;;;;;;;;;;;;;;;;;;5096963;28;19911;-71
2022/04/10 11:13:38;;;;;;;;;;;;;;;;;;5096692;28;19961;-70
2022/04/10 11:16:04;;;;;;;;;;;;;;;;;;5096849;28;20318;-71
2022/04/10 11:18:36;;;;;;;;;;;;;;;;;;5097055;28;19915;-70
2022/04/10 11:21:02;;;;;;;;;;;;;;;;;;5096327;28;19916;-71
2022/04/10 11:23:29;;;;;;;;;;;;;;;;;;5096761;28;20253;-70
2022/04/10 11:25:55;;;;;;;;;;;;;;;;;;5096754;28;19916;-70
2022/04/10 11:28:21;;;;;;;;;;;;;;;;;;5078114;28;19969;-71
2022/04/10 11:30:48;;;;;;;;;;;;;;;;;;5096634;28;20363;-71
2022/04/10 11:33:14;;;;;;;;;;;;;;;;;;5077968;28;19915;-71
2022/04/10 11:35:40;;;;;;;;;;;;;;;;;;5096922;28;20272;-72
2022/04/10 11:38:06;;;;;;;;;;;;;;;;;;5097004;28;19915;-71
2022/04/10 11:40:32;;;;;;;;;;;;;;;;;;5096429;28;19912;-71
2022/04/10 11:42:58;;;;;;;;;;;;;;;;;;5096511;28;20003;-70
2022/04/10 11:45:24;;;;;;;;;;;;;;;;;;5078252;28;19955;-72
2022/04/10 11:47:50;;;;;;;;;;;;;;;;;;5095878;28;20444;-71
2022/04/10 11:50:16;;;;;;;;;;;;;;;;;;5078049;28;19908;-70
2022/04/10 11:52:42;;;;;;;;;;;;;;;;;;5096354;28;20402;-70
2022/04/10 11:55:08;;;;;;;;;;;;;;;;;;5077620;28;19973;-70
2022/04/10 11:57:34;;;;;;;;;;;;;;;;;;5096344;28;19908;-71
2022/04/10 12:00:00;;;;;;;;;;;;;;;;;;5096025;28;19984;-69
2022/04/10 12:02:26;;;;;;;;;;;;;;;;;;5095457;28;19915;-71
2022/04/10 12:04:53;;;;;;;;;;;;;;;;;;5095750;28;20295;-72
2022/04/10 12:07:19;;;;;;;;;;;;;;;;;;5095889;28;19908;-70
2022/04/10 12:09:45;;;;;;;;;;;;;;;;;;5095558;28;19912;-70
2022/04/10 12:12:11;;;;;;;;;;;;;;;;;;5095827;28;20338;-70
2022/04/10 12:14:38;;;;;;;;;;;;;;;;;;5095989;28;20382;-70
2022/04/10 12:17:04;;;;;;;;;;;;;;;;;;5095367;28;19908;-70
2022/04/10 12:19:30;;;;;;;;;;;;;;;;;;5095661;28;20360;-71
2022/04/10 12:21:56;;;;;;;;;;;;;;;;;;5095672;28;19912;-69
2022/04/10 12:24:22;;;;;;;;;;;;;;;;;;5095146;28;19923;-70
2022/04/10 12:26:48;;;;;;;;;;;;;;;;;;5095522;28;19974;-69
2022/04/10 12:29:14;;;;;;;;;;;;;;;;;;5077348;28;20435;-71
2022/04/10 12:31:41;;;;;;;;;;;;;;;;;;5095030;28;19931;-72
2022/04/10 12:34:08;;;;;;;;;;;;;;;;;;5077167;28;19953;-72
2022/04/10 12:36:33;;;;;;;;;;;;;;;;;;5094928;28;20217;-72
2022/04/10 12:39:02;;;;;;;;;;;;;;;;;;5095539;28;19930;-71
2022/04/10 12:41:29;;;;;;;;;;;;;;;;;;5095277;28;19915;-71
2022/04/10 12:43:55;;;;;;;;;;;;;;;;;;5076613;28;20019;-70
2022/04/10 12:46:23;;;;;;;;;;;;;;;;;;5095092;28;19995;-70
2022/04/10 12:48:49;;;;;;;;;;;;;;;;;;5094990;28;20335;-70
2022/04/10 12:51:16;;;;;;;;;;;;;;;;;;5076450;28;19908;-71
2022/04/10 12:53:42;;;;;;;;;;;;;;;;;;5077131;28;20313;-71
2022/04/10 12:56:08;;;;;;;;;;;;;;;;;;5095851;28;19910;-72
2022/04/10 12:58:34;;;;;;;;;;;;;;;;;;5095112;28;19915;-71
2022/04/10 13:01:01;;;;;;;;;;;;;;;;;;5094913;28;19908;-71
2022/04/10 13:03:27;;;;;;;;;;;;;;;;;;5094797;28;19915;-71
2022/04/10 13:05:53;;;;;;;;;;;;;;;;;;5094096;28;19920;-71
2022/04/10 13:08:19;;;;;;;;;;;;;;;;;;5094673;28;19977;-71
2022/04/10 13:10:45;;;;;;;;;;;;;;;;;;5094726;28;19944;-71
2022/04/10 13:13:11;;;;;;;;;;;;;;;;;;5094242;28;19908;-71
2022/04/10 13:15:37;;;;;;;;;;;;;;;;;;5075990;28;19908;-71
2022/04/10 13:18:03;;;;;;;;;;;;;;;;;;5094806;28;19912;-71
2022/04/10 13:20:29;;;;;;;;;;;;;;;;;;5075945;28;19916;-71
2022/04/10 13:22:55;;;;;;;;;;;;;;;;;;5094938;28;19908;-70
2022/04/10 13:25:22;;;;;;;;;;;;;;;;;;5094270;28;20019;-70
2022/04/10 13:27:48;;;;;;;;;;;;;;;;;;5094067;28;19908;-70
2022/04/10 13:30:14;;;;;;;;;;;;;;;;;;5094374;28;20382;-70
2022/04/10 13:32:40;;;;;;;;;;;;;;;;;;5093908;28;19945;-70
2022/04/10 13:35:08;;;;;;;;;;;;;;;;;;5094252;28;19908;-72
2022/04/10 13:37:34;;;;;;;;;;;;;;;;;;5094238;28;19908;-71
2022/04/10 13:40:00;;;;;;;;;;;;;;;;;;5094384;28;19915;-71
2022/04/10 13:42:25;;;;;;;;;;;;;;;;;;5094558;28;19909;-70
2022/04/10 13:44:51;;;;;;;;;;;;;;;;;;5094122;28;19916;-70
2022/04/10 13:47:17;;;;;;;;;;;;;;;;;;5094130;28;19912;-71
2022/04/10 13:49:43;;;;;;;;;;;;;;;;;;5094123;28;19912;-70
2022/04/10 13:52:09;;;;;;;;;;;;;;;;;;5094054;28;20330;-71
2022/04/10 13:54:35;;;;;;;;;;;;;;;;;;5093919;28;19961;-72
2022/04/10 13:57:01;;;;;;;;;;;;;;;;;;5094636;28;19912;-70
2022/04/10 13:59:28;;;;;;;;;;;;;;;;;;5093972;28;19986;-70
2022/04/10 14:01:54;;;;;;;;;;;;;;;;;;5093792;28;20314;-71
2022/04/10 14:04:20;;;;;;;;;;;;;;;;;;5093618;28;19920;-70
2022/04/10 14:06:45;;;;;;;;;;;;;;;;;;5093989;28;19908;-70
2022/04/10 14:09:11;;;;;;;;;;;;;;;;;;5093605;28;20402;-70
2022/04/10 14:11:38;;;;;;;;;;;;;;;;;;5093774;28;19915;-70
2022/04/10 14:14:04;;;;;;;;;;;;;;;;;;5075626;28;19986;-71
2022/04/10 14:16:30;;;;;;;;;;;;;;;;;;5093409;28;19948;-70
2022/04/10 14:18:56;;;;;;;;;;;;;;;;;;5093837;28;19939;-70
2022/04/10 14:21:22;;;;;;;;;;;;;;;;;;5093706;28;20277;-70
2022/04/10 14:23:48;;;;;;;;;;;;;;;;;;5093453;28;19934;-70
2022/04/10 14:26:14;;;;;;;;;;;;;;;;;;5076570;28;19969;-70
2022/04/10 14:28:40;;;;;;;;;;;;;;;;;;5097847;28;19912;-70
2022/04/10 14:31:06;;;;;;;;;;;;;;;;;;5097353;28;19908;-69
2022/04/10 14:33:32;;;;;;;;;;;;;;;;;;5098050;28;20367;-70
2022/04/10 14:35:58;;;;;;;;;;;;;;;;;;5079044;28;20288;-70
2022/04/10 14:38:24;;;;;;;;;;;;;;;;;;5079324;28;19909;-70
2022/04/10 14:40:50;;;;;;;;;;;;;;;;;;5097610;28;19915;-70
2022/04/10 14:43:16;;;;;;;;;;;;;;;;;;5097232;28;19965;-70
2022/04/10 14:45:42;;;;;;;;;;;;;;;;;;5097604;28;19961;-70
2022/04/10 14:48:08;;;;;;;;;;;;;;;;;;5098242;28;20359;-71
2022/04/10 14:50:34;;;;;;;;;;;;;;;;;;5096922;28;19915;-70
2022/04/10 14:53:00;;;;;;;;;;;;;;;;;;5097332;28;20353;-70
2022/04/10 14:55:26;;;;;;;;;;;;;;;;;;5079040;28;19916;-71
2022/04/10 14:57:52;;;;;;;;;;;;;;;;;;5097100;28;20284;-72
2022/04/10 15:00:18;;;;;;;;;;;;;;;;;;5097267;28;19999;-72
2022/04/10 15:02:44;;;;;;;;;;;;;;;;;;5097146;28;20314;-71
2022/04/10 15:05:10;;;;;;;;;;;;;;;;;;5096512;28;19920;-72
2022/04/10 15:07:36;;;;;;;;;;;;;;;;;;5097170;28;19915;-71
2022/04/10 15:10:02;;;;;;;;;;;;;;;;;;5097315;28;19912;-71
2022/04/10 15:12:28;;;;;;;;;;;;;;;;;;5096799;28;19915;-71
2022/04/10 15:14:54;;;;;;;;;;;;;;;;;;5097448;28;19912;-71
2022/04/10 15:17:20;;;;;;;;;;;;;;;;;;5078799;28;20257;-71
2022/04/10 15:19:46;;;;;;;;;;;;;;;;;;5096370;28;19915;-71
2022/04/10 15:22:12;;;;;;;;;;;;;;;;;;5096779;28;20399;-71
2022/04/10 15:24:38;;;;;;;;;;;;;;;;;;5097028;28;19912;-73
2022/04/10 15:27:04;;;;;;;;;;;;;;;;;;5096416;28;19912;-70
2022/04/10 15:29:30;;;;;;;;;;;;;;;;;;5097287;28;20413;-70
2022/04/10 15:31:56;;;;;;;;;;;;;;;;;;5078498;28;19947;-70
2022/04/10 15:34:24;;;;;;;;;;;;;;;;;;5096258;28;20382;-71
2022/04/10 15:36:50;;;;;;;;;;;;;;;;;;5096051;28;19908;-71
2022/04/10 15:39:16;;;;;;;;;;;;;;;;;;5096461;28;19968;-71
2022/04/10 15:41:42;;;;;;;;;;;;;;;;;;5096063;28;20387;-71
2022/04/10 15:44:08;;;;;;;;;;;;;;;;;;5096341;28;19917;-71
2022/04/10 15:46:34;;;;;;;;;;;;;;;;;;5096167;28;20314;-71
2022/04/10 15:49:00;;;;;;;;;;;;;;;;;;5096534;28;19998;-71
2022/04/10 15:51:26;;;;;;;;;;;;;;;;;;5096573;28;19915;-71
2022/04/10 15:53:52;;;;;;;;;;;;;;;;;;5077671;28;19962;-71
2022/04/10 15:56:18;;;;;;;;;;;;;;;;;;5096703;28;19917;-71
2022/04/10 15:58:44;;;;;;;;;;;;;;;;;;5077948;28;20279;-70
2022/04/10 16:01:12;;;;;;;;;;;;;;;;;;5095670;28;19909;-71
2022/04/10 16:03:38;;;;;;;;;;;;;;;;;;5096077;28;19953;-70
2022/04/10 16:06:06;;;;;;;;;;;;;;;;;;5095766;28;19920;-72
2022/04/10 16:08:32;;;;;;;;;;;;;;;;;;5095858;28;19957;-70
2022/04/10 16:10:58;;;;;;;;;;;;;;;;;;5095960;28;19912;-72
2022/04/10 16:13:24;;;;;;;;;;;;;;;;;;5096055;28;19940;-72
2022/04/10 16:15:50;;;;;;;;;;;;;;;;;;5095519;28;20356;-73
2022/04/10 16:18:16;;;;;;;;;;;;;;;;;;5095615;28;19955;-70
2022/04/10 16:20:42;;;;;;;;;;;;;;;;;;5095763;28;20284;-71
2022/04/10 16:23:09;;;;;;;;;;;;;;;;;;5095363;28;19939;-71
2022/04/10 16:25:35;;;;;;;;;;;;;;;;;;5095632;28;20394;-71
2022/04/10 16:30:46;;;;;;;;;;;;;;;;;;5095202;28;19961;-71
2022/04/10 16:33:12;;;;;;;;;;;;;;;;;;5095444;28;19912;-71
2022/04/10 16:35:41;;;;;;;;;;;;;;;;;;5095817;28;19962;-71
2022/04/10 16:38:08;;;;;;;;;;;;;;;;;;5095571;28;20014;-71
2022/04/10 16:40:34;;;;;;;;;;;;;;;;;;5077101;28;19958;-74
2022/04/10 16:43:00;;;;;;;;;;;;;;;;;;5094871;28;19908;-71
2022/04/10 16:45:26;;;;;;;;;;;;;;;;;;5095285;28;19924;-71
2022/04/10 16:47:52;;;;;;;;;;;;;;;;;;5095639;28;19995;-71
2022/04/10 16:50:18;;;;;;;;;;;;;;;;;;5093884;28;19908;-73
2022/04/10 16:52:44;;;;;;;;;;;;;;;;;;5095154;28;19953;-72
2022/04/10 16:55:10;;;;;;;;;;;;;;;;;;5094959;28;20018;-72
2022/04/10 16:57:39;;;;;;;;;;;;;;;;;;5094589;28;19908;-72
2022/04/10 17:00:05;;;;;;;;;;;;;;;;;;5076598;28;19908;-71
2022/04/10 17:02:31;;;;;;;;;;;;;;;;;;5095400;28;19908;-73
2022/04/10 17:04:57;;;;;;;;;;;;;;;;;;5094230;28;19943;-72
2022/04/10 17:07:23;;;;;;;;;;;;;;;;;;5094842;28;19912;-71
2022/04/10 17:09:49;;;;;;;;;;;;;;;;;;5076543;28;19916;-72
2022/04/10 17:12:15;;;;;;;;;;;;;;;;;;5094205;28;20362;-71
2022/04/10 17:14:41;;;;;;;;;;;;;;;;;;5094695;28;20338;-71
2022/04/10 17:17:07;;;;;;;;;;;;;;;;;;5076388;28;19977;-70
2022/04/10 17:19:33;;;;;;;;;;;;;;;;;;5094117;28;20421;-71
2022/04/10 17:21:59;;;;;;;;;;;;;;;;;;5094479;28;19908;-72
2022/04/10 17:24:25;;;;;;;;;;;;;;;;;;5076195;28;19909;-70
2022/04/10 17:26:52;;;;;;;;;;;;;;;;;;5094224;28;19916;-70
2022/04/10 17:29:18;;;;;;;;;;;;;;;;;;5094780;28;19955;-73
2022/04/10 17:31:44;;;;;;;;;;;;;;;;;;5076253;28;19915;-73
2022/04/10 17:34:12;;;;;;;;;;;;;;;;;;5093962;28;19908;-72
2022/04/10 17:36:38;;;;;;;;;;;;;;;;;;5094386;28;19908;-74
2022/04/10 17:39:04;;;;;;;;;;;;;;;;;;5094066;28;19908;-71
2022/04/10 17:41:30;;;;;;;;;;;;;;;;;;5094894;28;19915;-72
2022/04/10 17:43:56;;;;;;;;;;;;;;;;;;5094140;28;19909;-71
2022/04/10 17:46:22;;;;;;;;;;;;;;;;;;5093195;28;19924;-71
2022/04/10 17:48:48;;;;;;;;;;;;;;;;;;5094270;28;20351;-72
2022/04/10 17:51:17;;;;;;;;;;;;;;;;;;5094433;28;19908;-71
2022/04/10 17:53:44;;;;;;;;;;;;;;;;;;5094046;28;19908;-71
2022/04/10 17:56:10;;;;;;;;;;;;;;;;;;5094213;28;20337;-73
2022/04/10 17:58:36;;;;;;;;;;;;;;;;;;5094257;28;20356;-71
2022/04/10 18:01:02;;;;;;;;;;;;;;;;;;5093585;28;19909;-71
2022/04/10 18:03:28;;;;;;;;;;;;;;;;;;5093900;28;19931;-72
2022/04/10 18:05:54;;;;;;;;;;;;;;;;;;5093695;28;19924;-70
2022/04/10 18:08:20;;;;;;;;;;;;;;;;;;5093513;28;19994;-71
2022/04/10 18:10:46;;;;;;;;;;;;;;;;;;5094108;28;20332;-70
2022/04/10 18:13:12;;;;;;;;;;;;;;;;;;5093931;28;19915;-70
2022/04/10 18:15:38;;;;;;;;;;;;;;;;;;5093383;28;20276;-70
2022/04/10 18:18:04;;;;;;;;;;;;;;;;;;5094363;28;19908;-71
2022/04/10 18:20:30;;;;;;;;;;;;;;;;;;5093772;28;20318;-71
2022/04/10 18:22:59;;;;;;;;;;;;;;;;;;5093464;28;20272;-70
2022/04/10 18:25:25;;;;;;;;;;;;;;;;;;5093805;28;20297;-70
2022/04/10 18:27:52;;;;;;;;;;;;;;;;;;5075598;28;19917;-70
2022/04/10 18:30:20;;;;;;;;;;;;;;;;;;5093369;28;19909;-70